createdAt,value
2023-02-11T00:00:40.999Z,64.82
2023-02-11T00:03:43.650Z,65.07
2023-02-11T00:06:47.066Z,65.51
2023-02-11T00:09:50.647Z,65.78
2023-02-11T00:12:53.186Z,66.22
2023-02-11T00:15:56.621Z,65.57
2023-02-11T00:19:00.578Z,66.17
2023-02-11T00:22:04.117Z,65.54
2023-02-11T00:25:09.665Z,65.18
2023-02-11T00:28:13.496Z,66.17
2023-02-11T00:31:18.291Z,66.57
2023-02-11T00:34:20.982Z,66.76
2023-02-11T00:37:23.653Z,66.51
2023-02-11T00:40:31.198Z,65.80
2023-02-11T00:43:35.712Z,67.17
2023-02-11T00:46:39.090Z,65.96
2023-02-11T00:49:42.534Z,66.28
2023-02-11T00:52:45.265Z,67.33
2023-02-11T00:55:49.002Z,67.36
2023-02-11T00:58:54.244Z,67.28
2023-02-11T01:01:57.676Z,67.84
2023-02-11T01:05:01.131Z,67.21
2023-02-11T01:08:04.033Z,67.49
2023-02-11T01:11:13.767Z,68.02
2023-02-11T01:14:18.205Z,67.49
2023-02-11T01:17:20.887Z,66.84
2023-02-11T01:20:28.419Z,66.61
2023-02-11T01:23:33.363Z,67.24
2023-02-11T01:26:36.584Z,66.44
2023-02-11T01:29:39.194Z,67.46
2023-02-11T01:32:41.810Z,67.66
2023-02-11T01:35:45.578Z,68.05
2023-02-11T01:38:49.929Z,68.05
2023-02-11T01:41:55.376Z,68.03
2023-02-11T01:45:01.704Z,67.89
2023-02-11T01:48:06.306Z,68.53
2023-02-11T01:51:29.732Z,68.81
2023-02-11T01:54:56.534Z,68.85
2023-02-11T01:58:05.076Z,68.61
2023-02-11T02:01:11.062Z,67.59
2023-02-11T02:04:17.906Z,68.63
2023-02-11T02:07:36.773Z,68.78
2023-02-11T02:10:54.725Z,69.31
2023-02-11T02:14:00.327Z,68.33
2023-02-11T02:17:03.056Z,68.87
2023-02-11T02:20:11.973Z,69.02
2023-02-11T02:23:33.380Z,67.33
2023-02-11T02:26:49.670Z,67.58
2023-02-11T02:30:20.146Z,68.40
2023-02-11T02:33:44.722Z,67.51
2023-02-11T02:36:59.084Z,67.72
2023-02-11T02:40:11.624Z,68.22
2023-02-11T02:43:15.392Z,68.56
2023-02-11T02:46:27.245Z,66.95
2023-02-11T02:49:30.702Z,67.17
2023-02-11T02:52:48.552Z,66.82
2023-02-11T02:56:09.519Z,66.03
2023-02-11T02:59:31.449Z,67.21
2023-02-11T03:02:40.432Z,67.71
2023-02-11T03:06:24.534Z,66.76
2023-02-11T03:09:42.647Z,66.34
2023-02-11T03:12:48.610Z,66.94
2023-02-11T03:15:55.386Z,67.48
2023-02-11T03:19:24.316Z,68.17
2023-02-11T03:22:35.147Z,68.61
2023-02-11T03:25:45.672Z,68.27
2023-02-11T03:28:54.320Z,67.73
2023-02-11T03:32:04.095Z,67.82
2023-02-11T03:35:23.366Z,68.04
2023-02-11T03:38:33.321Z,68.57
2023-02-11T03:41:37.261Z,69.26
2023-02-11T03:44:58.465Z,68.29
2023-02-11T03:48:07.266Z,67.55
2023-02-11T03:51:12.731Z,67.58
2023-02-11T03:54:20.901Z,68.37
2023-02-11T03:57:24.028Z,68.49
2023-02-11T04:00:35.442Z,68.05
2023-02-11T04:03:38.246Z,69.48
2023-02-11T04:06:41.963Z,68.65
2023-02-11T04:09:44.926Z,69.84
2023-02-11T04:12:47.684Z,70.13
2023-02-11T04:15:51.686Z,69.40
2023-02-11T04:18:54.486Z,68.81
2023-02-11T04:21:58.230Z,68.68
2023-02-11T04:25:01.889Z,69.04
2023-02-11T04:28:05.426Z,70.43
2023-02-11T04:31:08.052Z,71.36
2023-02-11T04:34:11.573Z,70.55
2023-02-11T04:37:15.978Z,70.33
2023-02-11T04:40:18.747Z,71.58
2023-02-11T04:43:24.019Z,70.09
2023-02-11T04:46:26.822Z,70.17
2023-02-11T04:49:29.503Z,70.96
2023-02-11T04:52:33.094Z,71.63
2023-02-11T04:55:35.659Z,72.01
2023-02-11T04:58:39.352Z,71.37
2023-02-11T05:01:43.009Z,71.09
2023-02-11T05:04:46.526Z,70.78
2023-02-11T05:07:49.303Z,70.19
2023-02-11T05:10:53.053Z,71.30
2023-02-11T05:13:56.460Z,71.42
2023-02-11T05:16:59.357Z,70.86
2023-02-11T05:20:02.238Z,71.05
2023-02-11T05:23:05.061Z,69.98
2023-02-11T05:26:08.972Z,70.57
2023-02-11T05:29:12.382Z,70.17
2023-02-11T05:32:17.741Z,72.18
2023-02-11T05:35:21.175Z,72.41
2023-02-11T05:38:26.527Z,71.05
2023-02-11T05:41:29.122Z,71.07
2023-02-11T05:44:32.018Z,71.41
2023-02-11T05:47:35.416Z,71.77
2023-02-11T05:50:38.927Z,71.80
2023-02-11T05:53:42.537Z,71.60
2023-02-11T05:56:45.888Z,69.72
2023-02-11T05:59:48.545Z,69.74
2023-02-11T06:02:52.970Z,70.39
2023-02-11T06:05:55.593Z,70.61
2023-02-11T06:08:59.977Z,70.97
2023-02-11T06:12:02.601Z,70.04
2023-02-11T06:15:08.883Z,70.30
2023-02-11T06:18:12.567Z,70.55
2023-02-11T06:21:15.994Z,70.95
2023-02-11T06:24:38.420Z,71.25
2023-02-11T06:27:41.334Z,70.13
2023-02-11T06:30:45.030Z,70.13
2023-02-11T06:33:47.809Z,70.35
2023-02-11T06:36:50.998Z,69.72
2023-02-11T06:39:53.629Z,68.30
2023-02-11T06:42:56.298Z,69.74
2023-02-11T06:45:59.482Z,68.76
2023-02-11T06:49:02.163Z,68.92
2023-02-11T06:52:05.872Z,69.24
2023-02-11T06:55:09.621Z,68.45
2023-02-11T06:58:12.241Z,68.76
2023-02-11T07:01:16.479Z,68.96
2023-02-11T07:04:19.496Z,68.06
2023-02-11T07:07:23.219Z,68.10
2023-02-11T07:10:26.574Z,67.30
2023-02-11T07:13:29.199Z,67.39
2023-02-11T07:16:33.146Z,67.70
2023-02-11T07:19:36.966Z,66.75
2023-02-11T07:22:39.606Z,66.67
2023-02-11T07:25:43.020Z,65.73
2023-02-11T07:28:51.165Z,64.80
2023-02-11T07:31:55.182Z,64.52
2023-02-11T07:34:58.042Z,64.57
2023-02-11T07:38:00.789Z,64.17
2023-02-11T07:41:06.879Z,64.28
2023-02-11T07:44:10.724Z,63.05
2023-02-11T07:47:14.112Z,62.56
2023-02-11T07:50:17.940Z,62.54
2023-02-11T07:53:20.618Z,61.81
2023-02-11T07:56:23.578Z,61.44
2023-02-11T07:59:27.471Z,62.14
2023-02-11T08:02:30.260Z,61.86
2023-02-11T08:05:33.602Z,61.89
2023-02-11T08:08:37.203Z,61.81
2023-02-11T08:11:39.772Z,61.19
2023-02-11T08:14:43.162Z,61.35
2023-02-11T08:17:47.654Z,60.77
2023-02-11T08:20:51.335Z,61.37
2023-02-11T08:23:54.701Z,62.49
2023-02-11T08:26:57.433Z,62.36
2023-02-11T08:30:01.894Z,61.48
2023-02-11T08:33:05.594Z,61.71
2023-02-11T08:36:14.144Z,61.73
2023-02-11T08:39:21.122Z,60.31
2023-02-11T08:42:24.673Z,60.47
2023-02-11T08:45:28.612Z,59.78
2023-02-11T08:48:32.203Z,59.37
2023-02-11T08:51:35.694Z,57.48
2023-02-11T08:54:39.318Z,57.30
2023-02-11T08:57:41.918Z,53.65
2023-02-11T09:00:45.432Z,51.57
2023-02-11T09:03:48.450Z,52.30
2023-02-11T09:06:51.104Z,50.49
2023-02-11T09:09:54.819Z,49.70
2023-02-11T09:12:57.788Z,49.13
2023-02-11T09:16:03.500Z,48.56
2023-02-11T09:19:06.556Z,47.79
2023-02-11T09:22:10.318Z,47.88
2023-02-11T09:25:13.077Z,47.19
2023-02-11T09:28:16.754Z,46.79
2023-02-11T09:31:24.031Z,46.08
2023-02-11T09:34:26.984Z,45.85
2023-02-11T09:37:30.298Z,46.46
2023-02-11T09:40:34.081Z,46.08
2023-02-11T09:43:44.714Z,45.92
2023-02-11T09:46:55.841Z,45.46
2023-02-11T09:50:07.694Z,45.83
2023-02-11T09:53:16.926Z,44.97
2023-02-11T09:56:20.323Z,45.27
2023-02-11T09:59:23.876Z,45.08
2023-02-11T10:02:46.959Z,44.70
2023-02-11T10:06:01.690Z,44.75
2023-02-11T10:09:35.594Z,45.57
2023-02-11T10:12:39.190Z,45.56
2023-02-11T10:16:00.410Z,45.65
2023-02-11T10:19:28.069Z,45.37
2023-02-11T10:22:42.529Z,46.09
2023-02-11T10:25:49.579Z,45.96
2023-02-11T10:28:54.632Z,46.33
2023-02-11T10:31:58.891Z,45.61
2023-02-11T10:35:10.584Z,46.72
2023-02-11T10:38:13.314Z,46.42
2023-02-11T10:41:26.489Z,46.17
2023-02-11T10:44:37.652Z,45.01
2023-02-11T10:47:41.652Z,43.97
2023-02-11T10:50:44.420Z,43.84
2023-02-11T10:54:13.833Z,43.50
2023-02-11T10:57:20.147Z,44.12
2023-02-11T11:00:42.343Z,43.83
2023-02-11T11:03:51.917Z,42.30
2023-02-11T11:06:55.845Z,42.91
2023-02-11T11:10:06.783Z,43.15
2023-02-11T11:13:29.898Z,42.33
2023-02-11T11:16:35.289Z,43.05
2023-02-11T11:19:39.297Z,43.20
2023-02-11T11:22:43.631Z,43.60
2023-02-11T11:26:04.221Z,44.31
2023-02-11T11:29:16.317Z,44.37
2023-02-11T11:32:37.161Z,44.80
2023-02-11T11:35:41.076Z,43.54
2023-02-11T11:38:58.104Z,43.74
2023-02-11T11:42:06.266Z,43.01
2023-02-11T11:45:10.232Z,42.61
2023-02-11T11:48:34.410Z,42.81
2023-02-11T11:51:40.461Z,42.31
2023-02-11T11:54:50.554Z,41.14
2023-02-11T11:57:53.186Z,39.98
2023-02-11T12:01:11.598Z,39.43
2023-02-11T12:04:32.836Z,39.08
2023-02-11T12:07:50.302Z,39.31
2023-02-11T12:11:02.001Z,38.78
2023-02-11T12:14:17.011Z,38.09
2023-02-11T12:17:46.759Z,38.70
2023-02-11T12:21:14.931Z,38.44
2023-02-11T12:24:25.376Z,37.25
2023-02-11T12:27:50.835Z,38.00
2023-02-11T12:31:49.500Z,37.36
2023-02-11T12:34:59.669Z,36.88
2023-02-11T12:38:18.863Z,36.72
2023-02-11T12:42:03.564Z,37.38
2023-02-11T12:45:09.518Z,36.99
2023-02-11T12:48:29.160Z,36.79
2023-02-11T12:51:36.863Z,35.70
2023-02-11T12:55:00.599Z,35.55
2023-02-11T12:58:04.535Z,35.79
2023-02-11T13:01:23.885Z,35.43
2023-02-11T13:04:37.786Z,34.97
2023-02-11T13:07:45.346Z,34.67
2023-02-11T13:10:53.204Z,34.19
2023-02-11T13:14:02.124Z,33.82
2023-02-11T13:17:18.479Z,32.89
2023-02-11T13:20:37.032Z,33.73
2023-02-11T13:23:58.006Z,34.00
2023-02-11T13:27:32.169Z,33.59
2023-02-11T13:30:41.045Z,34.63
2023-02-11T13:33:44.501Z,34.13
2023-02-11T13:36:55.906Z,34.54
2023-02-11T13:40:20.440Z,35.07
2023-02-11T13:43:28.861Z,35.12
2023-02-11T13:46:51.103Z,35.11
2023-02-11T13:49:54.606Z,34.68
2023-02-11T13:53:01.459Z,35.04
2023-02-11T13:56:08.877Z,35.22
2023-02-11T13:59:33.060Z,35.04
2023-02-11T14:03:00.227Z,34.98
2023-02-11T14:06:48.047Z,34.53
2023-02-11T14:09:57.080Z,35.62
2023-02-11T14:13:22.342Z,35.15
2023-02-11T14:16:37.548Z,34.96
2023-02-11T14:19:48.054Z,35.51
2023-02-11T14:22:53.541Z,35.67
2023-02-11T14:26:08.907Z,35.54
2023-02-11T14:29:26.239Z,35.42
2023-02-11T14:33:00.029Z,35.51
2023-02-11T14:36:28.594Z,35.37
2023-02-11T14:39:52.734Z,35.34
2023-02-11T14:43:01.949Z,36.29
2023-02-11T14:46:05.768Z,36.40
2023-02-11T14:49:33.986Z,36.69
2023-02-11T14:52:38.897Z,36.58
2023-02-11T14:55:44.537Z,37.09
2023-02-11T14:58:49.539Z,36.37
2023-02-11T15:01:57.016Z,37.21
2023-02-11T15:05:20.682Z,37.74
2023-02-11T15:08:24.674Z,37.80
2023-02-11T15:11:31.843Z,37.89
2023-02-11T15:14:36.706Z,37.44
2023-02-11T15:17:39.518Z,37.98
2023-02-11T15:20:42.187Z,38.21
2023-02-11T15:23:56.672Z,38.24
2023-02-11T15:27:16.271Z,38.66
2023-02-11T15:30:21.973Z,38.71
2023-02-11T15:33:27.690Z,38.61
2023-02-11T15:36:33.160Z,39.05
2023-02-11T15:39:41.122Z,39.55
2023-02-11T15:43:06.243Z,39.78
2023-02-11T15:46:14.046Z,39.98
2023-02-11T15:49:19.279Z,39.73
2023-02-11T15:52:26.838Z,40.11
2023-02-11T15:55:30.274Z,40.18
2023-02-11T15:58:38.181Z,40.49
2023-02-11T16:01:42.774Z,41.21
2023-02-11T16:04:56.605Z,41.50
2023-02-11T16:08:01.436Z,41.87
2023-02-11T16:11:09.229Z,42.14
2023-02-11T16:14:42.264Z,42.31
2023-02-11T16:17:45.703Z,42.15
2023-02-11T16:20:49.761Z,42.10
2023-02-11T16:23:56.475Z,42.04
2023-02-11T16:27:29.836Z,42.94
2023-02-11T16:30:38.320Z,43.06
2023-02-11T16:33:42.132Z,42.62
2023-02-11T16:36:47.502Z,43.12
2023-02-11T16:39:55.296Z,42.84
2023-02-11T16:42:59.264Z,43.23
2023-02-11T16:46:02.105Z,43.55
2023-02-11T16:49:11.639Z,43.46
2023-02-11T16:52:16.850Z,43.86
2023-02-11T16:55:22.048Z,43.33
2023-02-11T16:58:25.285Z,43.93
2023-02-11T17:01:28.795Z,43.38
2023-02-11T17:04:34.420Z,43.58
2023-02-11T17:07:37.440Z,43.88
2023-02-11T17:10:41.287Z,43.39
2023-02-11T17:13:46.862Z,43.47
2023-02-11T17:16:50.804Z,43.73
2023-02-11T17:19:53.891Z,43.94
2023-02-11T17:22:56.857Z,43.89
2023-02-11T17:26:00.719Z,43.75
2023-02-11T17:29:12.179Z,44.37
2023-02-11T17:32:15.594Z,44.49
2023-02-11T17:35:19.251Z,44.26
2023-02-11T17:38:23.215Z,44.34
2023-02-11T17:41:27.349Z,44.25
2023-02-11T17:44:30.781Z,44.08
2023-02-11T17:47:33.664Z,44.44
2023-02-11T17:50:40.812Z,44.91
2023-02-11T17:53:43.986Z,44.72
2023-02-11T17:56:50.706Z,44.74
2023-02-11T17:59:54.849Z,44.56
2023-02-11T18:03:02.742Z,45.26
2023-02-11T18:06:06.809Z,45.27
2023-02-11T18:09:11.415Z,45.73
2023-02-11T18:12:14.414Z,45.52
2023-02-11T18:15:18.584Z,46.59
2023-02-11T18:18:21.730Z,46.42
2023-02-11T18:21:25.964Z,45.97
2023-02-11T18:24:30.279Z,46.02
2023-02-11T18:27:32.894Z,45.72
2023-02-11T18:30:36.399Z,45.92
2023-02-11T18:33:41.374Z,46.24
2023-02-11T18:36:44.963Z,46.59
2023-02-11T18:39:48.912Z,46.12
2023-02-11T18:42:52.297Z,46.25
2023-02-11T18:45:55.895Z,45.68
2023-02-11T18:48:58.896Z,46.11
2023-02-11T18:52:03.424Z,45.84
2023-02-11T18:55:07.658Z,45.65
2023-02-11T18:58:10.905Z,45.68
2023-02-11T19:01:21.114Z,45.54
2023-02-11T19:04:24.872Z,45.52
2023-02-11T19:07:27.947Z,46.07
2023-02-11T19:10:31.395Z,46.21
2023-02-11T19:13:35.384Z,46.48
2023-02-11T19:16:43.710Z,46.21
2023-02-11T19:19:48.498Z,46.94
2023-02-11T19:22:51.394Z,46.71
2023-02-11T19:25:54.405Z,47.77
2023-02-11T19:28:59.459Z,47.52
2023-02-11T19:32:05.844Z,47.54
2023-02-11T19:35:09.546Z,47.31
2023-02-11T19:38:15.796Z,47.17
2023-02-11T19:41:24.745Z,46.87
2023-02-11T19:44:28.497Z,47.09
2023-02-11T19:47:31.532Z,47.78
2023-02-11T19:50:36.982Z,47.17
2023-02-11T19:53:41.182Z,47.18
2023-02-11T19:56:44.970Z,46.69
2023-02-11T19:59:49.285Z,47.13
2023-02-11T20:02:52.697Z,47.80
2023-02-11T20:05:55.592Z,47.24
2023-02-11T20:09:02.004Z,48.04
2023-02-11T20:12:06.596Z,48.81
2023-02-11T20:15:10.440Z,48.23
2023-02-11T20:18:14.008Z,48.64
2023-02-11T20:21:19.931Z,49.55
2023-02-11T20:24:23.810Z,49.25
2023-02-11T20:27:32.202Z,49.42
2023-02-11T20:30:35.251Z,49.96
2023-02-11T20:33:38.943Z,50.25
2023-02-11T20:36:42.053Z,50.49
2023-02-11T20:39:45.552Z,50.73
2023-02-11T20:42:48.999Z,51.04
2023-02-11T20:45:53.766Z,51.29
2023-02-11T20:48:57.547Z,51.30
2023-02-11T20:52:00.478Z,51.58
2023-02-11T20:55:03.692Z,52.07
2023-02-11T20:58:09.343Z,53.17
2023-02-11T21:01:20.178Z,52.79
2023-02-11T21:04:29.712Z,53.40
2023-02-11T21:07:32.611Z,53.48
2023-02-11T21:10:35.372Z,55.28
2023-02-11T21:13:40.261Z,54.65
2023-02-11T21:16:44.145Z,54.85
2023-02-11T21:19:47.003Z,54.78
2023-02-11T21:22:50.189Z,54.99
2023-02-11T21:25:54.663Z,55.41
2023-02-11T21:28:57.962Z,55.42
2023-02-11T21:32:01.105Z,55.69
2023-02-11T21:35:05.567Z,55.50
2023-02-11T21:38:08.328Z,55.18
2023-02-11T21:41:11.873Z,54.83
2023-02-11T21:44:15.744Z,55.97
2023-02-11T21:47:18.403Z,56.79
2023-02-11T21:50:22.084Z,57.29
2023-02-11T21:53:24.815Z,57.43
2023-02-11T21:56:29.655Z,57.73
2023-02-11T21:59:32.731Z,56.84
2023-02-11T22:02:37.978Z,58.18
2023-02-11T22:05:41.383Z,58.28
2023-02-11T22:08:44.820Z,58.41
2023-02-11T22:11:49.349Z,58.63
2023-02-11T22:14:51.856Z,59.14
2023-02-11T22:17:54.466Z,59.31
2023-02-11T22:21:06.967Z,60.01
2023-02-11T22:24:10.566Z,60.22
2023-02-11T22:27:14.693Z,60.26
2023-02-11T22:30:18.197Z,60.63
2023-02-11T22:33:23.127Z,60.59
2023-02-11T22:36:29.877Z,61.30
2023-02-11T22:39:33.184Z,61.00
2023-02-11T22:42:35.939Z,61.74
2023-02-11T22:45:39.152Z,61.90
2023-02-11T22:48:42.425Z,61.87
2023-02-11T22:51:46.496Z,62.78
2023-02-11T22:54:51.329Z,62.51
2023-02-11T22:57:53.928Z,62.84
2023-02-11T23:00:56.625Z,62.87
2023-02-11T23:04:01.258Z,63.60
2023-02-11T23:07:04.688Z,63.79
2023-02-11T23:10:10.552Z,64.31
2023-02-11T23:13:14.240Z,64.49
2023-02-11T23:16:20.155Z,63.63
2023-02-11T23:19:23.979Z,65.20
2023-02-11T23:22:27.931Z,64.96
2023-02-11T23:25:31.429Z,65.29
2023-02-11T23:28:34.076Z,65.29
2023-02-11T23:31:40.437Z,65.58
2023-02-11T23:34:43.240Z,65.63
2023-02-11T23:37:45.929Z,66.46
2023-02-11T23:40:49.175Z,66.18
2023-02-11T23:43:56.412Z,66.75
2023-02-11T23:46:59.733Z,67.26
2023-02-11T23:50:04.161Z,66.86
2023-02-11T23:53:08.713Z,67.87
2023-02-11T23:56:20.189Z,67.24
2023-02-11T23:59:22.966Z,67.83
